Time;durP1;ratioP1;P1;durP2;ratioP2;P2;SDS_P1;SDS_P2;PMS_P1;PMS_P2;Temp;Humidity;BMP_temperature;BMP_pressure;BME280_temperature;BME280_humidity;BME280_pressure;Samples;Min_cycle;Max_cycle;Signal;HPM_P1;HPM_P2
2021/06/30 00:00:58;;;;;;;8.40;5.95;;;;;;;;;;5067730;28;20037;-69
2021/06/30 00:03:24;;;;;;;10.32;6.10;;;;;;;;;;5071900;28;20025;-69
2021/06/30 00:05:50;;;;;;;9.85;5.97;;;;;;;;;;5062859;28;20033;-69
2021/06/30 00:08:16;;;;;;;9.10;7.18;;;;;;;;;;5071044;28;20063;-69
2021/06/30 00:10:42;;;;;;;10.25;7.18;;;;;;;;;;5069829;28;20056;-69
2021/06/30 00:13:09;;;;;;;11.23;7.22;;;;;;;;;;5068485;28;20031;-69
2021/06/30 00:15:36;;;;;;;12.60;7.55;;;;;;;;;;5071535;28;20051;-69
2021/06/30 00:18:01;;;;;;;10.82;6.88;;;;;;;;;;5071618;28;20032;-69
2021/06/30 00:20:27;;;;;;;10.95;6.97;;;;;;;;;;5076372;28;20496;-70
2021/06/30 00:22:53;;;;;;;13.05;8.63;;;;;;;;;;5077926;28;20129;-69
2021/06/30 00:25:21;;;;;;;10.63;7.78;;;;;;;;;;5068807;28;20032;-69
2021/06/30 00:27:47;;;;;;;14.85;8.10;;;;;;;;;;5070542;28;20440;-68
2021/06/30 00:30:13;;;;;;;11.68;7.68;;;;;;;;;;5070857;28;20036;-69
2021/06/30 00:32:39;;;;;;;10.07;6.72;;;;;;;;;;5070932;28;20028;-69
2021/06/30 00:35:06;;;;;;;10.48;6.85;;;;;;;;;;5059578;28;20032;-69
2021/06/30 00:37:32;;;;;;;11.43;7.22;;;;;;;;;;5070692;28;20271;-69
2021/06/30 00:39:58;;;;;;;11.20;7.32;;;;;;;;;;5063565;28;20371;-69
2021/06/30 00:42:24;;;;;;;9.85;7.00;;;;;;;;;;5068145;28;20032;-69
2021/06/30 00:44:49;;;;;;;9.77;6.53;;;;;;;;;;5054071;28;20076;-69
2021/06/30 00:47:17;;;;;;;10.32;6.65;;;;;;;;;;5070311;28;20024;-68
2021/06/30 00:49:43;;;;;;;12.65;7.28;;;;;;;;;;5070378;28;20115;-69
2021/06/30 00:52:09;;;;;;;14.23;7.68;;;;;;;;;;5072698;28;20103;-69
2021/06/30 00:54:35;;;;;;;11.55;6.93;;;;;;;;;;5073758;28;20025;-69
2021/06/30 00:57:01;;;;;;;12.45;7.05;;;;;;;;;;5070496;28;20035;-69
2021/06/30 00:59:27;;;;;;;10.05;6.35;;;;;;;;;;5068887;28;20470;-69
2021/06/30 01:01:54;;;;;;;12.57;6.25;;;;;;;;;;5057290;28;20036;-68
2021/06/30 01:04:20;;;;;;;7.88;5.70;;;;;;;;;;5065736;28;20439;-69
2021/06/30 01:06:46;;;;;;;9.70;5.90;;;;;;;;;;5068393;28;20066;-69
2021/06/30 01:09:12;;;;;;;9.55;5.53;;;;;;;;;;5070046;28;20020;-69
2021/06/30 01:11:38;;;;;;;13.13;6.03;;;;;;;;;;5070140;28;20017;-69
2021/06/30 01:14:04;;;;;;;11.30;6.07;;;;;;;;;;5069740;28;20037;-69
2021/06/30 01:16:31;;;;;;;11.30;5.93;;;;;;;;;;5070044;28;20103;-69
2021/06/30 01:18:57;;;;;;;10.90;6.13;;;;;;;;;;5069947;28;20024;-68
2021/06/30 01:21:23;;;;;;;10.27;5.97;;;;;;;;;;5070560;28;20035;-69
2021/06/30 01:23:49;;;;;;;8.88;5.13;;;;;;;;;;5063770;28;20028;-69
2021/06/30 01:26:15;;;;;;;6.70;5.15;;;;;;;;;;5069771;28;20106;-69
2021/06/30 01:28:41;;;;;;;8.52;5.97;;;;;;;;;;5069876;28;20462;-69
2021/06/30 01:31:08;;;;;;;7.97;4.97;;;;;;;;;;5065246;28;20020;-69
2021/06/30 01:33:34;;;;;;;6.93;4.47;;;;;;;;;;5069717;28;20031;-69
2021/06/30 01:36:01;;;;;;;10.00;5.20;;;;;;;;;;5069831;28;20396;-68
2021/06/30 01:38:28;;;;;;;8.98;5.68;;;;;;;;;;5061064;28;20036;-69
2021/06/30 01:40:55;;;;;;;8.93;4.93;;;;;;;;;;5064156;28;20017;-68
2021/06/30 01:43:22;;;;;;;9.15;4.70;;;;;;;;;;5070097;28;20103;-69
2021/06/30 01:45:50;;;;;;;5.93;4.85;;;;;;;;;;5069383;28;20555;-69
2021/06/30 01:48:16;;;;;;;9.63;5.03;;;;;;;;;;5068173;28;20016;-68
2021/06/30 01:50:42;;;;;;;9.50;5.07;;;;;;;;;;5066838;28;20032;-69
2021/06/30 01:53:08;;;;;;;8.73;5.13;;;;;;;;;;5069993;28;20037;-69
2021/06/30 01:55:35;;;;;;;7.65;5.10;;;;;;;;;;5069416;28;20028;-69
2021/06/30 01:58:01;;;;;;;6.78;5.40;;;;;;;;;;5069385;28;20111;-68
2021/06/30 02:00:27;;;;;;;11.10;6.15;;;;;;;;;;5073083;28;20442;-69
2021/06/30 02:02:53;;;;;;;12.18;5.85;;;;;;;;;;5073521;28;20103;-69
2021/06/30 02:05:20;;;;;;;8.30;5.53;;;;;;;;;;5073824;28;20116;-69
2021/06/30 02:07:48;;;;;;;16.08;6.07;;;;;;;;;;5073584;28;20071;-69
2021/06/30 02:10:15;;;;;;;11.10;6.68;;;;;;;;;;5073685;28;20386;-69
2021/06/30 02:12:41;;;;;;;10.30;6.63;;;;;;;;;;5073504;28;20035;-69
2021/06/30 02:15:08;;;;;;;11.10;6.82;;;;;;;;;;5069512;28;20453;-68
2021/06/30 02:17:34;;;;;;;7.85;6.00;;;;;;;;;;5066359;28;20067;-69
2021/06/30 02:20:00;;;;;;;10.07;6.43;;;;;;;;;;5073458;28;20025;-69
2021/06/30 02:22:27;;;;;;;9.80;6.40;;;;;;;;;;5069644;28;20029;-69
2021/06/30 02:24:56;;;;;;;9.68;7.05;;;;;;;;;;5069659;28;20458;-69
2021/06/30 02:27:22;;;;;;;11.97;6.83;;;;;;;;;;5073636;28;20044;-68
2021/06/30 02:29:48;;;;;;;11.00;6.20;;;;;;;;;;5072903;28;20416;-68
2021/06/30 02:32:14;;;;;;;7.68;5.70;;;;;;;;;;5072223;28;20028;-68
2021/06/30 02:34:39;;;;;;;10.00;7.28;;;;;;;;;;5072847;28;20433;-69
2021/06/30 02:37:06;;;;;;;9.35;6.53;;;;;;;;;;5073349;28;20394;-69
2021/06/30 02:39:32;;;;;;;11.02;6.80;;;;;;;;;;5061391;28;20037;-69
2021/06/30 02:41:58;;;;;;;8.98;6.05;;;;;;;;;;5070550;28;20024;-68
2021/06/30 02:44:23;;;;;;;9.57;6.68;;;;;;;;;;5072944;28;20167;-69
2021/06/30 02:46:49;;;;;;;9.02;6.63;;;;;;;;;;5072554;28;20112;-69
2021/06/30 02:49:15;;;;;;;8.80;6.10;;;;;;;;;;5073258;28;20028;-69
2021/06/30 02:51:41;;;;;;;10.35;5.68;;;;;;;;;;5072481;28;20086;-69
2021/06/30 02:54:07;;;;;;;10.25;5.90;;;;;;;;;;5073082;28;20025;-69
2021/06/30 02:56:33;;;;;;;9.52;6.45;;;;;;;;;;5072991;28;20025;-69
2021/06/30 02:58:59;;;;;;;7.15;5.60;;;;;;;;;;5064509;28;20095;-68
2021/06/30 03:01:25;;;;;;;7.75;6.18;;;;;;;;;;5073113;28;20094;-67
2021/06/30 03:03:51;;;;;;;11.45;6.68;;;;;;;;;;5072548;28;20032;-69
2021/06/30 03:06:17;;;;;;;7.32;5.65;;;;;;;;;;5068995;28;20025;-69
2021/06/30 03:08:43;;;;;;;7.68;5.38;;;;;;;;;;5072643;28;20068;-69
2021/06/30 03:11:09;;;;;;;11.02;6.53;;;;;;;;;;5064480;28;20033;-68
2021/06/30 03:13:35;;;;;;;9.75;7.00;;;;;;;;;;5067236;28;20028;-68
2021/06/30 03:16:01;;;;;;;7.45;5.95;;;;;;;;;;5072081;28;20035;-69
2021/06/30 03:18:27;;;;;;;11.00;7.00;;;;;;;;;;5072252;28;20029;-69
2021/06/30 03:20:53;;;;;;;9.68;6.95;;;;;;;;;;5072348;28;20024;-69
2021/06/30 03:23:18;;;;;;;10.48;7.20;;;;;;;;;;5072591;28;20028;-69
2021/06/30 03:25:44;;;;;;;11.52;6.68;;;;;;;;;;5072512;28;20390;-69
2021/06/30 03:28:10;;;;;;;10.95;7.20;;;;;;;;;;5070206;28;20032;-69
2021/06/30 03:30:36;;;;;;;12.98;6.88;;;;;;;;;;5067315;28;20029;-69
2021/06/30 03:33:02;;;;;;;10.75;7.30;;;;;;;;;;5069185;28;20029;-68
2021/06/30 03:35:28;;;;;;;11.65;6.80;;;;;;;;;;5072300;28;20112;-69
2021/06/30 03:37:55;;;;;;;9.65;6.35;;;;;;;;;;5061214;28;20086;-69
2021/06/30 03:40:21;;;;;;;9.50;6.72;;;;;;;;;;5072259;28;20564;-69
2021/06/30 03:42:47;;;;;;;10.10;6.78;;;;;;;;;;5071673;28;20031;-69
2021/06/30 03:45:13;;;;;;;7.88;6.47;;;;;;;;;;5072343;28;20060;-69
2021/06/30 03:47:39;;;;;;;9.98;6.80;;;;;;;;;;5071923;28;20052;-69
2021/06/30 03:50:06;;;;;;;10.35;6.10;;;;;;;;;;5071438;28;20114;-69
2021/06/30 03:52:32;;;;;;;8.60;6.43;;;;;;;;;;5072207;28;20025;-69
2021/06/30 03:54:58;;;;;;;9.63;6.30;;;;;;;;;;5071574;28;20048;-69
2021/06/30 03:57:25;;;;;;;9.95;6.55;;;;;;;;;;5070188;28;20028;-69
2021/06/30 03:59:51;;;;;;;9.98;6.65;;;;;;;;;;5066829;28;20020;-69
2021/06/30 04:02:17;;;;;;;10.95;7.15;;;;;;;;;;5068346;28;20497;-69
2021/06/30 04:04:44;;;;;;;10.48;6.75;;;;;;;;;;5063606;28;20082;-69
2021/06/30 04:07:10;;;;;;;13.23;7.80;;;;;;;;;;5072010;28;20064;-69
2021/06/30 04:09:36;;;;;;;13.88;8.73;;;;;;;;;;5068357;28;20025;-69
2021/06/30 04:12:02;;;;;;;13.63;8.25;;;;;;;;;;5065433;28;20073;-69
2021/06/30 04:14:28;;;;;;;13.55;8.27;;;;;;;;;;5071114;28;20055;-69
2021/06/30 04:16:54;;;;;;;15.18;8.10;;;;;;;;;;5071831;28;20156;-69
2021/06/30 04:19:21;;;;;;;14.07;8.75;;;;;;;;;;5070429;28;20096;-68
2021/06/30 04:21:47;;;;;;;14.82;9.45;;;;;;;;;;5071551;28;20017;-69
2021/06/30 04:24:13;;;;;;;13.35;9.20;;;;;;;;;;5071214;28;20027;-69
2021/06/30 04:26:39;;;;;;;14.43;9.00;;;;;;;;;;5066999;28;20239;-69
2021/06/30 04:29:05;;;;;;;14.35;8.43;;;;;;;;;;5068720;28;20016;-69
2021/06/30 04:31:31;;;;;;;11.30;7.82;;;;;;;;;;5071450;28;20047;-69
2021/06/30 04:33:57;;;;;;;13.85;7.78;;;;;;;;;;5069916;28;20043;-69
2021/06/30 04:36:23;;;;;;;13.68;7.40;;;;;;;;;;5066482;28;20545;-69
2021/06/30 04:38:49;;;;;;;14.05;7.80;;;;;;;;;;5069221;28;20466;-70
2021/06/30 04:41:15;;;;;;;12.70;6.97;;;;;;;;;;5067503;28;20047;-69
2021/06/30 04:43:41;;;;;;;16.10;7.22;;;;;;;;;;5071217;28;20028;-69
2021/06/30 04:46:07;;;;;;;13.57;7.30;;;;;;;;;;5068256;28;20108;-69
2021/06/30 04:48:34;;;;;;;10.35;7.30;;;;;;;;;;5070795;28;20508;-69
2021/06/30 04:51:00;;;;;;;12.98;7.65;;;;;;;;;;5061413;28;20038;-69
2021/06/30 04:53:26;;;;;;;16.90;8.60;;;;;;;;;;5070644;28;20111;-68
2021/06/30 04:55:53;;;;;;;14.23;8.38;;;;;;;;;;5061747;28;20163;-69
2021/06/30 04:58:19;;;;;;;14.10;8.80;;;;;;;;;;5070887;28;20016;-69
2021/06/30 05:00:45;;;;;;;13.75;8.75;;;;;;;;;;5070586;28;20059;-68
2021/06/30 05:03:11;;;;;;;17.58;9.35;;;;;;;;;;5071160;28;20043;-69
2021/06/30 05:05:37;;;;;;;16.50;8.93;;;;;;;;;;5069090;28;20085;-68
2021/06/30 05:08:03;;;;;;;16.52;8.73;;;;;;;;;;5070961;28;20451;-67
2021/06/30 05:10:29;;;;;;;15.20;9.13;;;;;;;;;;5070384;28;20115;-68
2021/06/30 05:12:55;;;;;;;18.98;9.13;;;;;;;;;;5070746;28;20481;-68
2021/06/30 05:15:22;;;;;;;15.98;8.75;;;;;;;;;;5071065;28;20039;-69
2021/06/30 05:17:49;;;;;;;14.82;8.00;;;;;;;;;;5070455;28;20020;-71
2021/06/30 05:20:15;;;;;;;16.35;9.73;;;;;;;;;;5070598;28;20055;-68
2021/06/30 05:22:41;;;;;;;16.17;8.13;;;;;;;;;;5070479;28;20470;-69
2021/06/30 05:25:07;;;;;;;9.63;6.00;;;;;;;;;;5064941;28;20029;-69
2021/06/30 05:27:33;;;;;;;15.60;7.35;;;;;;;;;;5065977;28;20047;-69
2021/06/30 05:29:59;;;;;;;12.32;5.95;;;;;;;;;;5068950;28;20032;-69
2021/06/30 05:32:25;;;;;;;10.15;6.88;;;;;;;;;;5063547;28;20031;-68
2021/06/30 05:34:51;;;;;;;15.77;6.80;;;;;;;;;;5067297;28;20028;-69
2021/06/30 05:37:17;;;;;;;13.90;6.65;;;;;;;;;;5070828;28;20104;-69
2021/06/30 05:39:43;;;;;;;15.95;7.30;;;;;;;;;;5068942;28;20028;-69
2021/06/30 05:42:09;;;;;;;14.77;7.07;;;;;;;;;;5063768;28;20412;-69
2021/06/30 05:44:35;;;;;;;12.98;6.55;;;;;;;;;;5066761;28;20028;-69
2021/06/30 05:47:01;;;;;;;14.75;6.47;;;;;;;;;;5070357;28;20021;-69
2021/06/30 05:49:27;;;;;;;13.27;6.57;;;;;;;;;;5069040;28;20462;-69
2021/06/30 05:51:53;;;;;;;13.57;6.85;;;;;;;;;;5068459;28;20020;-68
2021/06/30 05:54:19;;;;;;;13.13;6.65;;;;;;;;;;5070101;28;20024;-69
2021/06/30 05:56:45;;;;;;;8.43;5.57;;;;;;;;;;5069682;28;20028;-69
2021/06/30 05:59:11;;;;;;;10.30;5.93;;;;;;;;;;5070062;28;20056;-69
2021/06/30 06:01:37;;;;;;;9.98;6.18;;;;;;;;;;5070180;28;20516;-69
2021/06/30 06:04:03;;;;;;;10.48;6.05;;;;;;;;;;5064050;28;20029;-68
2021/06/30 06:06:29;;;;;;;14.80;7.07;;;;;;;;;;5065328;28;20029;-68
2021/06/30 06:08:55;;;;;;;14.18;6.97;;;;;;;;;;5069432;28;20028;-68
2021/06/30 06:11:22;;;;;;;12.95;7.70;;;;;;;;;;5069261;28;20055;-68
2021/06/30 06:13:48;;;;;;;12.75;6.70;;;;;;;;;;5069742;28;20450;-73
2021/06/30 06:16:16;;;;;;;12.82;7.95;;;;;;;;;;5067788;28;20032;-70
2021/06/30 06:18:42;;;;;;;14.05;7.57;;;;;;;;;;5067789;28;20024;-69
2021/06/30 06:21:08;;;;;;;16.08;8.48;;;;;;;;;;5066402;28;20516;-69
2021/06/30 06:23:34;;;;;;;17.92;8.50;;;;;;;;;;5067531;28;20518;-70
2021/06/30 06:26:00;;;;;;;14.25;7.63;;;;;;;;;;5067026;28;20497;-69
2021/06/30 06:28:30;;;;;;;11.27;7.57;;;;;;;;;;5067016;28;20055;-70
2021/06/30 06:30:56;;;;;;;10.00;6.15;;;;;;;;;;5066888;28;20028;-69
2021/06/30 06:33:22;;;;;;;11.68;7.07;;;;;;;;;;5067805;28;20028;-69
2021/06/30 06:35:48;;;;;;;14.05;7.05;;;;;;;;;;5068182;28;20024;-71
2021/06/30 06:38:15;;;;;;;13.77;6.65;;;;;;;;;;5068687;28;20040;-70
2021/06/30 06:40:41;;;;;;;12.10;6.45;;;;;;;;;;5068327;28;20078;-70
2021/06/30 06:43:08;;;;;;;9.95;6.35;;;;;;;;;;5068434;28;20025;-71
2021/06/30 06:45:34;;;;;;;19.58;6.85;;;;;;;;;;5067242;28;20028;-70
2021/06/30 06:48:00;;;;;;;15.35;6.88;;;;;;;;;;5072031;28;20025;-70
2021/06/30 06:50:26;;;;;;;11.63;6.38;;;;;;;;;;5073141;28;20504;-70
2021/06/30 06:52:52;;;;;;;15.80;7.47;;;;;;;;;;5072103;28;20404;-70
2021/06/30 06:55:18;;;;;;;14.18;6.82;;;;;;;;;;5072702;28;20350;-70
2021/06/30 06:57:44;;;;;;;12.98;6.97;;;;;;;;;;5073861;28;20048;-70
2021/06/30 07:00:10;;;;;;;13.70;6.88;;;;;;;;;;5073309;28;20389;-70
2021/06/30 07:02:36;;;;;;;11.65;6.65;;;;;;;;;;5072202;28;20326;-70
2021/06/30 07:05:02;;;;;;;8.93;5.53;;;;;;;;;;5071881;28;20039;-70
2021/06/30 07:07:28;;;;;;;12.18;6.50;;;;;;;;;;5073015;28;20044;-70
2021/06/30 07:09:54;;;;;;;13.75;6.18;;;;;;;;;;5073303;28;20495;-70
2021/06/30 07:12:20;;;;;;;10.57;5.80;;;;;;;;;;5073082;28;20142;-70
2021/06/30 07:14:46;;;;;;;10.45;6.53;;;;;;;;;;5073926;28;20012;-70
2021/06/30 07:17:12;;;;;;;10.27;6.22;;;;;;;;;;5071829;28;20043;-71
2021/06/30 07:19:38;;;;;;;8.60;5.82;;;;;;;;;;5072224;28;20027;-71
2021/06/30 07:22:04;;;;;;;13.15;7.18;;;;;;;;;;5076129;28;20028;-70
2021/06/30 07:24:30;;;;;;;11.35;6.82;;;;;;;;;;5072019;28;20029;-70
2021/06/30 07:26:56;;;;;;;12.98;7.28;;;;;;;;;;5073441;28;20367;-70
2021/06/30 07:29:22;;;;;;;13.38;7.18;;;;;;;;;;5070236;28;20025;-70
2021/06/30 07:31:48;;;;;;;10.75;7.18;;;;;;;;;;5071887;28;20558;-70
2021/06/30 07:34:14;;;;;;;11.57;6.88;;;;;;;;;;5068168;28;20116;-70
2021/06/30 07:36:40;;;;;;;10.32;6.75;;;;;;;;;;5065440;28;20017;-71
2021/06/30 07:39:08;;;;;;;10.32;6.95;;;;;;;;;;5071598;28;20404;-70
2021/06/30 07:41:34;;;;;;;12.23;8.05;;;;;;;;;;5071609;28;20070;-70
2021/06/30 07:44:00;;;;;;;16.75;7.65;;;;;;;;;;5065227;28;20067;-70
2021/06/30 07:46:28;;;;;;;16.63;7.78;;;;;;;;;;5069648;28;20492;-70
2021/06/30 07:48:55;;;;;;;16.30;7.55;;;;;;;;;;5070238;28;20206;-70
2021/06/30 07:51:21;;;;;;;13.07;7.68;;;;;;;;;;5069334;28;20031;-70
2021/06/30 07:53:47;;;;;;;9.93;6.85;;;;;;;;;;5057544;28;20036;-69
2021/06/30 07:56:13;;;;;;;15.57;6.78;;;;;;;;;;5061363;28;20497;-70
2021/06/30 07:58:39;;;;;;;19.00;8.25;;;;;;;;;;5049956;28;20031;-69
2021/06/30 08:01:05;;;;;;;21.05;8.02;;;;;;;;;;5049412;28;20473;-69
2021/06/30 08:03:31;;;;;;;16.65;7.25;;;;;;;;;;5051212;28;20036;-69
2021/06/30 08:05:57;;;;;;;13.73;7.65;;;;;;;;;;5051707;28;20039;-69
2021/06/30 08:08:23;;;;;;;16.17;7.80;;;;;;;;;;5052429;28;20025;-70
2021/06/30 08:10:49;;;;;;;22.58;8.52;;;;;;;;;;5051643;28;20028;-70
2021/06/30 08:13:15;;;;;;;14.70;8.73;;;;;;;;;;5055876;28;20029;-70
2021/06/30 08:15:41;;;;;;;15.50;7.70;;;;;;;;;;5060268;28;20764;-69
2021/06/30 08:18:07;;;;;;;12.15;7.03;;;;;;;;;;5046495;28;20033;-70
2021/06/30 08:20:33;;;;;;;13.18;7.25;;;;;;;;;;5059048;28;20032;-70
2021/06/30 08:22:59;;;;;;;16.25;7.20;;;;;;;;;;5059786;28;20031;-70
2021/06/30 08:25:25;;;;;;;12.90;7.22;;;;;;;;;;5060476;28;20421;-71
2021/06/30 08:27:52;;;;;;;15.90;5.78;;;;;;;;;;5047745;28;20022;-70
2021/06/30 08:30:18;;;;;;;12.93;5.97;;;;;;;;;;5055629;28;20048;-70
2021/06/30 08:32:45;;;;;;;14.48;7.05;;;;;;;;;;5052324;28;20390;-69
2021/06/30 08:35:14;;;;;;;13.52;7.05;;;;;;;;;;5064284;28;20067;-68
2021/06/30 08:37:41;;;;;;;16.08;6.53;;;;;;;;;;5051556;28;20032;-68
2021/06/30 08:40:08;;;;;;;12.13;6.35;;;;;;;;;;5047071;28;20079;-69
2021/06/30 08:42:34;;;;;;;17.65;7.43;;;;;;;;;;5050867;28;20048;-69
2021/06/30 08:45:00;;;;;;;15.52;6.78;;;;;;;;;;5047781;28;20068;-68
2021/06/30 08:47:32;;;;;;;12.23;6.82;;;;;;;;;;5047729;28;20386;-69
2021/06/30 08:49:59;;;;;;;10.70;6.55;;;;;;;;;;5056760;28;20119;-69
2021/06/30 08:52:25;;;;;;;10.15;6.47;;;;;;;;;;5052254;28;20881;-69
2021/06/30 08:54:52;;;;;;;15.40;6.97;;;;;;;;;;5054032;28;20450;-69
2021/06/30 08:57:18;;;;;;;11.35;6.25;;;;;;;;;;5055000;28;20150;-69
2021/06/30 08:59:45;;;;;;;10.77;6.30;;;;;;;;;;5059018;28;20021;-69
2021/06/30 09:02:11;;;;;;;10.05;5.85;;;;;;;;;;5055680;28;20035;-69
2021/06/30 09:04:41;;;;;;;10.90;5.40;;;;;;;;;;5050123;28;20053;-69
2021/06/30 09:07:07;;;;;;;11.18;5.80;;;;;;;;;;5056984;28;20418;-69
2021/06/30 09:09:43;;;;;;;14.82;6.78;;;;;;;;;;5049474;28;20025;-69
2021/06/30 09:12:10;;;;;;;15.30;7.22;;;;;;;;;;5057794;28;20103;-69
2021/06/30 09:14:40;;;;;;;11.25;6.90;;;;;;;;;;5044811;28;20044;-69
2021/06/30 09:17:15;;;;;;;15.55;7.47;;;;;;;;;;5051910;28;20017;-69
2021/06/30 09:19:53;;;;;;;15.15;7.68;;;;;;;;;;5044744;28;20028;-69
2021/06/30 09:22:21;;;;;;;11.82;6.75;;;;;;;;;;5056759;28;20024;-69
2021/06/30 09:24:47;;;;;;;10.77;5.78;;;;;;;;;;5056052;28;20155;-69
2021/06/30 09:27:15;;;;;;;10.00;6.57;;;;;;;;;;5048568;28;20502;-69
2021/06/30 09:29:42;;;;;;;10.52;5.82;;;;;;;;;;5055356;28;20044;-69
2021/06/30 09:32:13;;;;;;;10.07;6.20;;;;;;;;;;5061389;28;20505;-69
2021/06/30 09:34:39;;;;;;;12.32;6.78;;;;;;;;;;5054394;28;20025;-69
2021/06/30 09:37:06;;;;;;;11.32;6.15;;;;;;;;;;5049427;28;20143;-69
2021/06/30 09:39:53;;;;;;;8.32;6.40;;;;;;;;;;5052683;28;20028;-69
2021/06/30 09:42:19;;;;;;;8.30;6.40;;;;;;;;;;5058466;28;20146;-69
2021/06/30 09:44:45;;;;;;;9.10;5.40;;;;;;;;;;5051688;28;20104;-69
2021/06/30 09:47:11;;;;;;;7.93;5.82;;;;;;;;;;5049732;28;20017;-68
2021/06/30 09:49:38;;;;;;;8.63;5.10;;;;;;;;;;5049766;28;20483;-69
2021/06/30 09:52:08;;;;;;;6.95;4.65;;;;;;;;;;5053711;28;20070;-69
2021/06/30 09:54:35;;;;;;;7.20;4.15;;;;;;;;;;5041508;28;20507;-69
2021/06/30 09:57:08;;;;;;;5.40;2.97;;;;;;;;;;5049307;28;20470;-69
2021/06/30 09:59:38;;;;;;;3.83;3.17;;;;;;;;;;5043949;28;20383;-69
2021/06/30 10:02:08;;;;;;;3.72;3.05;;;;;;;;;;5044161;28;20099;-69
2021/06/30 10:04:38;;;;;;;5.80;3.58;;;;;;;;;;5049176;28;20032;-69
2021/06/30 10:07:06;;;;;;;5.38;2.92;;;;;;;;;;5048959;28;20021;-69
2021/06/30 10:09:32;;;;;;;5.72;2.80;;;;;;;;;;5049417;28;20047;-69
2021/06/30 10:11:59;;;;;;;5.32;2.92;;;;;;;;;;5049026;28;20028;-70
2021/06/30 10:14:26;;;;;;;7.45;2.85;;;;;;;;;;5048221;28;20029;-69
2021/06/30 10:16:52;;;;;;;2.95;2.60;;;;;;;;;;5049264;28;20033;-69
2021/06/30 10:19:19;;;;;;;4.72;2.90;;;;;;;;;;5045985;28;20021;-69
2021/06/30 10:21:45;;;;;;;9.07;3.17;;;;;;;;;;5069073;28;20485;-69
2021/06/30 10:24:13;;;;;;;5.07;2.50;;;;;;;;;;5055685;28;20044;-69
2021/06/30 10:26:39;;;;;;;4.20;3.15;;;;;;;;;;5050967;28;20147;-69
2021/06/30 10:29:05;;;;;;;4.28;3.33;;;;;;;;;;5049885;28;20475;-68
2021/06/30 10:31:34;;;;;;;4.75;3.15;;;;;;;;;;5071624;28;20021;-69
2021/06/30 10:34:03;;;;;;;5.97;3.05;;;;;;;;;;5072922;28;20370;-69
2021/06/30 10:37:01;;;;;;;6.78;3.65;;;;;;;;;;5072539;28;20029;-69
2021/06/30 10:39:36;;;;;;;7.28;4.35;;;;;;;;;;5046166;28;20043;-69
2021/06/30 10:42:38;;;;;;;6.93;4.38;;;;;;;;;;5072316;28;20107;-69
2021/06/30 10:45:24;;;;;;;7.32;4.38;;;;;;;;;;5029729;28;20036;-69
2021/06/30 10:47:51;;;;;;;8.57;4.32;;;;;;;;;;5068503;28;20044;-70
2021/06/30 10:50:17;;;;;;;6.28;4.00;;;;;;;;;;5071117;28;20369;-70
2021/06/30 10:52:48;;;;;;;6.45;3.67;;;;;;;;;;5069089;28;20044;-71
2021/06/30 10:55:33;;;;;;;4.07;3.25;;;;;;;;;;5069128;28;20566;-69
2021/06/30 10:58:14;;;;;;;4.85;2.83;;;;;;;;;;5067819;28;20021;-68
2021/06/30 11:00:41;;;;;;;5.20;3.33;;;;;;;;;;5070129;28;20025;-70
2021/06/30 11:03:23;;;;;;;4.53;2.90;;;;;;;;;;5072609;28;20027;-70
2021/06/30 11:05:49;;;;;;;8.27;3.40;;;;;;;;;;5069035;28;20096;-70
2021/06/30 11:08:39;;;;;;;4.40;3.25;;;;;;;;;;5072534;28;20021;-71
2021/06/30 11:11:06;;;;;;;4.82;2.97;;;;;;;;;;5054190;28;20062;-69
2021/06/30 11:13:51;;;;;;;8.30;3.75;;;;;;;;;;5062367;28;20013;-69
2021/06/30 11:16:37;;;;;;;2.72;1.98;;;;;;;;;;5065591;28;20025;-69
2021/06/30 11:19:06;;;;;;;3.60;1.80;;;;;;;;;;5071506;28;20031;-69
2021/06/30 11:21:47;;;;;;;3.47;1.88;;;;;;;;;;5072907;28;20028;-69
2021/06/30 11:24:32;;;;;;;2.22;1.05;;;;;;;;;;5068525;28;20032;-70
2021/06/30 11:26:58;;;;;;;3.60;1.30;;;;;;;;;;5071817;28;20505;-70
2021/06/30 11:29:42;;;;;;;3.88;1.60;;;;;;;;;;5071111;28;20024;-69
2021/06/30 11:32:32;;;;;;;6.85;2.10;;;;;;;;;;5071252;28;20521;-69
2021/06/30 11:34:58;;;;;;;6.95;2.40;;;;;;;;;;5069658;28;20024;-69
2021/06/30 11:37:26;;;;;;;6.85;2.28;;;;;;;;;;5071669;28;20035;-69
2021/06/30 11:39:54;;;;;;;4.68;2.17;;;;;;;;;;5070988;28;20103;-69
2021/06/30 11:42:51;;;;;;;5.63;2.50;;;;;;;;;;5069992;28;20478;-69
2021/06/30 11:45:31;;;;;;;6.82;3.15;;;;;;;;;;5060767;28;20032;-69
2021/06/30 11:47:57;;;;;;;;;;;;;;;;;;5071855;28;20021;-68
2021/06/30 11:50:24;;;;;;;9.25;3.97;;;;;;;;;;5071340;28;19908;-69
2021/06/30 11:52:51;;;;;;;7.43;3.90;;;;;;;;;;5071734;28;20017;-69
2021/06/30 11:55:17;;;;;;;9.25;4.50;;;;;;;;;;5070269;28;20023;-67
2021/06/30 11:57:50;;;;;;;10.10;5.28;;;;;;;;;;5071306;28;20490;-69
2021/06/30 12:00:16;;;;;;;9.55;4.72;;;;;;;;;;5069105;28;20486;-68
2021/06/30 12:02:49;;;;;;;8.65;5.32;;;;;;;;;;5068818;28;20052;-68
2021/06/30 12:05:15;;;;;;;9.63;4.85;;;;;;;;;;5070620;28;20059;-69
2021/06/30 12:07:42;;;;;;;10.60;5.28;;;;;;;;;;5070780;28;20504;-69
2021/06/30 12:10:08;;;;;;;7.18;4.28;;;;;;;;;;5069435;28;20028;-69
2021/06/30 12:12:34;;;;;;;5.90;4.00;;;;;;;;;;5070556;28;20055;-69
2021/06/30 12:15:02;;;;;;;7.57;3.75;;;;;;;;;;5071204;28;20186;-68
2021/06/30 12:17:29;;;;;;;7.80;3.53;;;;;;;;;;5063798;28;20039;-68
2021/06/30 12:19:56;;;;;;;6.20;3.33;;;;;;;;;;5070443;28;20021;-68
2021/06/30 12:22:40;;;;;;;8.07;3.35;;;;;;;;;;5067038;28;20384;-68
2021/06/30 12:25:07;;;;;;;8.30;3.45;;;;;;;;;;5067417;28;20143;-67
2021/06/30 12:27:35;;;;;;;5.68;3.40;;;;;;;;;;5069695;28;20473;-69
2021/06/30 12:30:03;;;;;;;6.93;3.53;;;;;;;;;;5069820;28;20021;-69
2021/06/30 12:32:29;;;;;;;6.20;3.05;;;;;;;;;;5069878;28;20055;-69
2021/06/30 12:35:00;;;;;;;5.03;3.22;;;;;;;;;;5070023;28;20024;-69
2021/06/30 12:37:27;;;;;;;5.60;3.03;;;;;;;;;;5070165;28;20048;-68
2021/06/30 12:39:58;;;;;;;5.78;2.67;;;;;;;;;;5069849;28;20564;-68
2021/06/30 12:42:41;;;;;;;8.85;3.20;;;;;;;;;;5070144;28;20029;-68
2021/06/30 12:45:07;;;;;;;5.20;3.03;;;;;;;;;;5067231;28;20032;-69
2021/06/30 12:47:33;;;;;;;5.80;3.45;;;;;;;;;;5069743;28;20028;-68
2021/06/30 12:50:01;;;;;;;7.07;3.50;;;;;;;;;;5070297;28;20028;-67
2021/06/30 12:52:27;;;;;;;9.20;3.80;;;;;;;;;;5068570;28;20020;-68
2021/06/30 12:55:06;;;;;;;9.10;4.60;;;;;;;;;;5068415;28;20028;-69
2021/06/30 12:57:32;;;;;;;7.38;3.90;;;;;;;;;;5069952;28;20501;-68
2021/06/30 13:00:08;;;;;;;6.13;3.90;;;;;;;;;;5069111;28;20032;-68
2021/06/30 13:02:34;;;;;;;8.45;3.60;;;;;;;;;;5070078;28;20466;-68
2021/06/30 13:05:19;;;;;;;6.85;3.22;;;;;;;;;;5068846;28;20119;-68
2021/06/30 13:07:45;;;;;;;6.97;3.70;;;;;;;;;;5068282;28;20440;-68
2021/06/30 13:10:18;;;;;;;6.95;3.33;;;;;;;;;;5068306;28;20107;-68
2021/06/30 13:12:44;;;;;;;9.40;3.65;;;;;;;;;;5068565;28;20490;-68
2021/06/30 13:15:22;;;;;;;9.85;4.35;;;;;;;;;;5068589;28;20060;-68
2021/06/30 13:17:48;;;;;;;8.77;4.60;;;;;;;;;;5064513;28;20032;-68
2021/06/30 13:20:14;;;;;;;11.07;4.65;;;;;;;;;;5069189;28;20386;-68
2021/06/30 13:22:44;;;;;;;9.13;5.05;;;;;;;;;;5070201;28;20420;-68
2021/06/30 13:25:37;;;;;;;12.13;5.85;;;;;;;;;;5069931;28;20086;-68
2021/06/30 13:28:07;;;;;;;10.90;4.65;;;;;;;;;;5068133;28;20043;-68
2021/06/30 13:36:07;;;;;;;11.90;4.65;;;;;;;;;;5069455;28;20047;-69
2021/06/30 13:38:35;;;;;;;9.80;4.68;;;;;;;;;;5068622;28;20029;-67
2021/06/30 13:41:03;;;;;;;11.40;5.20;;;;;;;;;;5068558;28;20025;-67
2021/06/30 13:43:29;;;;;;;9.43;4.93;;;;;;;;;;5069925;28;20481;-67
2021/06/30 13:45:57;;;;;;;13.20;5.90;;;;;;;;;;5067354;28;20029;-67
2021/06/30 13:48:24;;;;;;;14.43;5.65;;;;;;;;;;5068969;28;20025;-66
2021/06/30 13:50:57;;;;;;;10.15;5.53;;;;;;;;;;5069297;28;20025;-67
2021/06/30 13:53:25;;;;;;;9.65;5.80;;;;;;;;;;5066098;28;20021;-67
2021/06/30 13:55:51;;;;;;;20.08;6.43;;;;;;;;;;5067232;28;20020;-67
2021/06/30 13:58:17;;;;;;;14.07;6.07;;;;;;;;;;5069317;28;20028;-67
2021/06/30 14:00:43;;;;;;;9.60;5.88;;;;;;;;;;5069157;28;20112;-66
2021/06/30 14:03:09;;;;;;;13.10;5.90;;;;;;;;;;5069019;28;20070;-67
2021/06/30 14:05:35;;;;;;;12.32;5.75;;;;;;;;;;5066270;28;20034;-69
2021/06/30 14:08:02;;;;;;;9.60;5.65;;;;;;;;;;5067504;28;20635;-67
2021/06/30 14:10:29;;;;;;;9.82;5.45;;;;;;;;;;5061545;28;20141;-67
2021/06/30 14:12:56;;;;;;;11.80;5.13;;;;;;;;;;5067083;28;20095;-67
2021/06/30 14:15:23;;;;;;;8.23;5.18;;;;;;;;;;5065509;28;20024;-67
2021/06/30 14:17:50;;;;;;;9.23;5.93;;;;;;;;;;5064848;28;20037;-67
2021/06/30 14:20:16;;;;;;;12.57;5.40;;;;;;;;;;5068658;28;20108;-67
2021/06/30 14:22:43;;;;;;;8.80;5.78;;;;;;;;;;5068267;28;20105;-67
2021/06/30 14:25:10;;;;;;;9.98;4.68;;;;;;;;;;5068698;28;20097;-67
2021/06/30 14:27:36;;;;;;;10.52;5.13;;;;;;;;;;5068823;28;20037;-67
2021/06/30 14:30:22;;;;;;;10.85;4.60;;;;;;;;;;5061477;28;20430;-68
2021/06/30 14:32:48;;;;;;;10.23;3.85;;;;;;;;;;5060063;28;20027;-67
2021/06/30 14:35:15;;;;;;;11.75;3.72;;;;;;;;;;5069017;28;20362;-68
2021/06/30 14:37:41;;;;;;;9.88;4.30;;;;;;;;;;5065394;28;20031;-68
2021/06/30 14:40:09;;;;;;;10.10;3.80;;;;;;;;;;5069309;28;20029;-67
2021/06/30 14:42:35;;;;;;;5.10;3.58;;;;;;;;;;5063633;28;20108;-67
2021/06/30 14:45:01;;;;;;;6.85;3.45;;;;;;;;;;5068820;28;20103;-67